Medina, Saudi Arabia
Current Conditions -  °F | °C
As of 3:00 PM on Saturday 25 Oct 2014 (Local Time) from OEMA Reporting Station
Scattered Clouds Scattered Clouds  
Wind Chill: 97°   Ceiling: Unl
Heat Index: 97°   Visibility: 6mi
Dew Point: 32°   Wind: 3mph
Humidity: 10%   Direction: 230°SW
Pressure: 29.94"   Gusts: NA
Location:  24.46°N, 39.62°E
Report Text: OEMA 251200Z 23003KT 9999 SCT040 36/00 Q1014 NOSIG
Loading
Personal Weather Stations






























Interactive Weather Map
Tropical Storm Tracking
New forecast layout! Learn more

10-Day Weather Forecast

Advertisements
Track Severe Weather on mobile